Date,TemperatureHighF,TemperatureAvgF,TemperatureLowF,DewpointHighF,DewpointAvgF,DewpointLowF,HumidityHigh,HumidityAvg,HumidityLow,PressureMaxIn,PressureMinIn,WindSpeedMaxMPH,WindSpeedAvgMPH,GustSpeedMaxMPH,PrecipitationSumIn
2013-3-1,74.0,53.3,37.0,52.0,43.2,34.0,94,72,38,30.37,30.17,3,0,6,0.00
2013-3-2,69.0,49.1,41.0,53.0,43.2,38.0,92,81,53,30.19,30.06,0,0,3,0.00
2013-3-3,55.0,47.6,45.0,44.0,42.6,41.0,89,83,67,30.02,29.96,1,0,3,0.00
2013-3-4,58.0,47.6,36.0,46.0,41.9,32.0,91,81,60,30.08,29.98,2,0,6,0.00
2013-3-5,54.0,45.1,34.0,47.0,40.3,31.0,95,84,66,30.01,29.70,5,1,19,0.51
2013-3-6,57.0,47.4,37.0,48.0,41.5,35.0,92,81,53,29.98,29.70,4,1,19,0.95
2013-3-7,55.0,44.7,35.0,45.0,37.9,32.0,94,79,46,29.95,29.80,1,0,5,0.01
2013-3-8,64.0,46.9,31.0,45.0,37.1,28.0,95,72,40,29.97,29.78,2,0,9,0.00
2013-3-9,72.0,49.5,32.0,45.0,37.0,29.0,93,67,32,30.26,29.97,1,0,7,0.00
2013-3-10,72.0,49.7,32.0,45.0,36.3,27.0,94,68,21,30.29,30.17,3,0,7,0.00
2013-3-11,72.0,50.1,34.0,49.0,40.1,31.0,94,73,31,30.21,30.03,2,0,7,0.00
2013-3-12,76.0,53.7,39.0,55.0,44.0,36.0,94,74,33,30.10,30.00,1,0,6,0.00
2013-3-13,80.0,55.9,38.0,55.0,45.4,35.0,95,72,31,30.10,29.99,1,0,5,0.00
2013-3-14,74.0,54.3,42.0,56.0,45.6,39.0,93,75,33,30.10,30.00,1,0,7,0.00
2013-3-15,77.0,54.0,39.0,55.0,44.0,36.0,94,73,33,30.07,29.94,3,0,9,0.00
2013-3-16,78.0,55.6,36.0,51.0,39.5,29.0,96,62,19,30.06,29.96,6,0,16,0.00
2013-3-17,69.0,54.8,37.0,45.0,39.0,32.0,87,58,32,30.08,29.97,1,0,6,0.00
2013-3-18,69.0,50.4,36.0,47.0,40.5,33.0,92,72,41,30.04,29.95,1,0,5,0.00
2013-3-19,60.0,50.7,42.0,48.0,43.4,39.0,91,77,55,30.06,29.99,0,0,5,0.04
2013-3-20,61.0,50.9,46.0,56.0,47.7,43.0,94,89,77,30.07,29.99,2,0,8,0.49
2013-3-21,68.0,50.9,35.0,46.0,40.7,32.0,94,72,37,30.08,29.94,1,0,7,0.01
2013-3-22,70.0,50.7,31.0,43.0,34.0,24.0,94,61,19,30.08,29.96,2,0,10,0.01
2013-3-23,68.0,49.6,33.0,43.0,35.8,30.0,92,65,27,30.09,29.97,1,0,9,0.00
2013-3-24,70.0,51.2,35.0,47.0,40.4,32.0,93,70,37,30.03,29.90,1,0,5,0.00
2013-3-25,60.0,48.2,39.0,48.0,41.5,35.0,93,79,54,29.97,29.86,1,0,8,0.00
2013-3-26,67.0,49.8,41.0,48.0,42.3,38.0,94,77,42,29.94,29.86,2,0,6,0.00
2013-3-27,60.0,51.4,44.0,53.0,46.4,39.0,90,83,67,29.95,29.88,1,0,7,0.00
2013-3-28,64.0,54.3,49.0,55.0,49.8,45.0,92,85,67,30.02,29.93,1,0,5,0.04
2013-3-29,76.0,58.4,47.0,56.0,49.8,44.0,94,76,43,30.03,29.94,2,0,7,0.01
2013-3-30,67.0,55.6,50.0,55.0,49.0,-99.9,92,82,61,30.01,29.93,3,0,9,0.09
2013-3-31,60.0,54.8,50.0,56.0,52.4,48.0,94,92,82,30.00,29.93,1,0,7,1.50